Other Surface Observations
Issued by NWS Great Falls, MT

Home | Current Version | Previous Version | Text Only | Print | Product List | Glossary On
Versions: 1 2 3 4 5 6 7 8 9 10 11 12 13 14 15 16 17 18 19 20 21 22 23 24 25 26 27 28 29 30 31 32 33 34 35 36 37 38 39 40 41 42 43 44 45 46 47 48 49 50
000
SXUS55 KTFX 050640
OSOTFX
AREA AWOS OBSERVATIONS
NATIONAL WEATHER SERVICE GREAT FALLS MT
1235 AM MDT SAT SEP 05 2015

METAR KPWD 050630Z AUTO 03016G20KT 10SM 14/08 A2994 RMK PLENTYWOOD
METAR KPO1 050630Z AUTO 01012G18KT 10SM 17/09 A2993 RMK POPLAR
METAR K1S3 050630Z AUTO 31008KT 10SM 16/11 A2988 RMK FORSYTH
METAR KS71 050630Z AUTO 26004KT 10SM 11/10 A3003 RMK CHINOOK
METAR K79S 050630Z AUTO 01006KT 10SM 11/10 A3000 RMK FORT BENTON
METAR K3U3 050630Z AUTO 00000KT 08/07 A2993 RMK ANACONDA
METAR K6S5 050630Z AUTO 06004KT 10SM 12/08 A2983 RMK HAMILTON
METAR KS59 050630Z AUTO 32004KT 10SM 14/02 A2990 RMK LIBBY
METAR K88M 050630Z AUTO 15003KT 10SM 12/04 A2995 RMK EUREKA



USA.gov is the U.S. government's official web portal to all federal, state and local government web resources and services.